sensor_id;sensor_type;location;lat;lon;timestamp;P1;durP1;ratioP1;P2;durP2;ratioP2
69434;SDS011;56625;54.322;18.582;2023-03-01T00:01:29;10.60;;;2.70;;
69434;SDS011;56625;54.322;18.582;2023-03-01T00:03:57;11.60;;;2.50;;
69434;SDS011;56625;54.322;18.582;2023-03-01T00:06:25;11.80;;;2.40;;
69434;SDS011;56625;54.322;18.582;2023-03-01T00:08:53;8.40;;;1.60;;
69434;SDS011;56625;54.322;18.582;2023-03-01T00:13:55;8.90;;;2.00;;
69434;SDS011;56625;54.322;18.582;2023-03-01T00:16:36;7.10;;;2.00;;
69434;SDS011;56625;54.322;18.582;2023-03-01T00:19:08;5.50;;;1.10;;
69434;SDS011;56625;54.322;18.582;2023-03-01T00:21:38;7.50;;;1.90;;
69434;SDS011;56625;54.322;18.582;2023-03-01T00:24:06;5.30;;;1.50;;
69434;SDS011;56625;54.322;18.582;2023-03-01T00:26:33;6.90;;;1.40;;
69434;SDS011;56625;54.322;18.582;2023-03-01T00:29:00;7.60;;;2.00;;
69434;SDS011;56625;54.322;18.582;2023-03-01T00:31:29;5.90;;;1.10;;
69434;SDS011;56625;54.322;18.582;2023-03-01T00:33:59;6.10;;;1.40;;
69434;SDS011;56625;54.322;18.582;2023-03-01T00:36:34;12.10;;;2.50;;
69434;SDS011;56625;54.322;18.582;2023-03-01T00:39:05;7.60;;;2.20;;
69434;SDS011;56625;54.322;18.582;2023-03-01T00:41:36;7.40;;;1.80;;
69434;SDS011;56625;54.322;18.582;2023-03-01T00:44:03;8.10;;;1.60;;
69434;SDS011;56625;54.322;18.582;2023-03-01T00:46:30;8.10;;;1.60;;
69434;SDS011;56625;54.322;18.582;2023-03-01T00:48:57;7.40;;;1.40;;
69434;SDS011;56625;54.322;18.582;2023-03-01T00:51:26;4.40;;;0.80;;
69434;SDS011;56625;54.322;18.582;2023-03-01T00:53:56;6.90;;;1.00;;
69434;SDS011;56625;54.322;18.582;2023-03-01T00:56:24;6.80;;;1.40;;
69434;SDS011;56625;54.322;18.582;2023-03-01T00:58:51;7.50;;;1.60;;
69434;SDS011;56625;54.322;18.582;2023-03-01T01:01:20;8.00;;;1.80;;
69434;SDS011;56625;54.322;18.582;2023-03-01T01:03:54;8.50;;;1.60;;
69434;SDS011;56625;54.322;18.582;2023-03-01T01:06:32;8.10;;;1.90;;
69434;SDS011;56625;54.322;18.582;2023-03-01T01:09:03;8.00;;;2.20;;
69434;SDS011;56625;54.322;18.582;2023-03-01T01:11:32;7.50;;;1.70;;
69434;SDS011;56625;54.322;18.582;2023-03-01T01:14:00;7.10;;;1.30;;
69434;SDS011;56625;54.322;18.582;2023-03-01T01:16:28;4.30;;;1.30;;
69434;SDS011;56625;54.322;18.582;2023-03-01T01:18:56;9.30;;;1.60;;
69434;SDS011;56625;54.322;18.582;2023-03-01T01:21:24;5.70;;;1.60;;
69434;SDS011;56625;54.322;18.582;2023-03-01T01:23:51;6.80;;;1.70;;
69434;SDS011;56625;54.322;18.582;2023-03-01T01:26:23;7.30;;;1.90;;
69434;SDS011;56625;54.322;18.582;2023-03-01T01:28:52;7.50;;;1.90;;
69434;SDS011;56625;54.322;18.582;2023-03-01T01:31:22;9.40;;;2.00;;
69434;SDS011;56625;54.322;18.582;2023-03-01T01:33:51;7.20;;;1.30;;
69434;SDS011;56625;54.322;18.582;2023-03-01T01:36:18;10.20;;;1.90;;
69434;SDS011;56625;54.322;18.582;2023-03-01T01:38:46;7.20;;;1.50;;
69434;SDS011;56625;54.322;18.582;2023-03-01T01:41:13;5.90;;;1.40;;
69434;SDS011;56625;54.322;18.582;2023-03-01T01:43:49;6.10;;;1.80;;
69434;SDS011;56625;54.322;18.582;2023-03-01T01:46:37;10.10;;;1.90;;
69434;SDS011;56625;54.322;18.582;2023-03-01T01:49:16;7.60;;;1.90;;
69434;SDS011;56625;54.322;18.582;2023-03-01T01:51:49;8.30;;;1.90;;
69434;SDS011;56625;54.322;18.582;2023-03-01T01:54:28;7.30;;;2.00;;
69434;SDS011;56625;54.322;18.582;2023-03-01T01:57:03;5.40;;;1.60;;
69434;SDS011;56625;54.322;18.582;2023-03-01T01:59:35;10.40;;;1.80;;
69434;SDS011;56625;54.322;18.582;2023-03-01T02:02:04;9.50;;;2.50;;
69434;SDS011;56625;54.322;18.582;2023-03-01T02:04:32;10.40;;;2.70;;
69434;SDS011;56625;54.322;18.582;2023-03-01T02:07:15;6.50;;;2.00;;
69434;SDS011;56625;54.322;18.582;2023-03-01T02:09:46;6.90;;;1.80;;
69434;SDS011;56625;54.322;18.582;2023-03-01T02:12:17;9.50;;;2.60;;
69434;SDS011;56625;54.322;18.582;2023-03-01T02:14:45;8.90;;;1.90;;
69434;SDS011;56625;54.322;18.582;2023-03-01T02:17:13;9.10;;;2.90;;
69434;SDS011;56625;54.322;18.582;2023-03-01T02:20:02;6.10;;;1.60;;
69434;SDS011;56625;54.322;18.582;2023-03-01T02:22:39;10.20;;;2.90;;
69434;SDS011;56625;54.322;18.582;2023-03-01T02:30:36;9.40;;;2.60;;
69434;SDS011;56625;54.322;18.582;2023-03-01T02:33:03;11.20;;;3.40;;
69434;SDS011;56625;54.322;18.582;2023-03-01T02:35:37;11.50;;;3.70;;
69434;SDS011;56625;54.322;18.582;2023-03-01T02:38:07;10.50;;;3.00;;
69434;SDS011;56625;54.322;18.582;2023-03-01T02:40:35;8.50;;;2.40;;
69434;SDS011;56625;54.322;18.582;2023-03-01T02:43:06;11.60;;;2.40;;
69434;SDS011;56625;54.322;18.582;2023-03-01T02:45:35;8.50;;;2.60;;
69434;SDS011;56625;54.322;18.582;2023-03-01T02:48:01;11.80;;;3.70;;
69434;SDS011;56625;54.322;18.582;2023-03-01T02:53:04;8.00;;;2.80;;
69434;SDS011;56625;54.322;18.582;2023-03-01T02:55:40;11.30;;;3.40;;
69434;SDS011;56625;54.322;18.582;2023-03-01T02:58:07;11.30;;;3.50;;
69434;SDS011;56625;54.322;18.582;2023-03-01T03:00:40;12.70;;;3.80;;
69434;SDS011;56625;54.322;18.582;2023-03-01T03:03:14;9.50;;;3.00;;
69434;SDS011;56625;54.322;18.582;2023-03-01T03:05:42;12.80;;;3.80;;
69434;SDS011;56625;54.322;18.582;2023-03-01T03:08:09;10.00;;;3.60;;
69434;SDS011;56625;54.322;18.582;2023-03-01T03:10:39;11.20;;;2.80;;
69434;SDS011;56625;54.322;18.582;2023-03-01T03:13:11;12.70;;;3.90;;
69434;SDS011;56625;54.322;18.582;2023-03-01T03:15:41;17.30;;;5.20;;
69434;SDS011;56625;54.322;18.582;2023-03-01T03:18:16;14.80;;;5.10;;
69434;SDS011;56625;54.322;18.582;2023-03-01T03:20:44;14.90;;;4.60;;
69434;SDS011;56625;54.322;18.582;2023-03-01T03:23:12;11.00;;;4.00;;
69434;SDS011;56625;54.322;18.582;2023-03-01T03:25:39;12.50;;;3.50;;
69434;SDS011;56625;54.322;18.582;2023-03-01T03:28:07;16.60;;;3.90;;
69434;SDS011;56625;54.322;18.582;2023-03-01T03:30:39;12.60;;;4.30;;
69434;SDS011;56625;54.322;18.582;2023-03-01T03:33:08;11.50;;;3.90;;
69434;SDS011;56625;54.322;18.582;2023-03-01T03:35:45;19.00;;;5.70;;
69434;SDS011;56625;54.322;18.582;2023-03-01T03:38:15;12.90;;;4.10;;
69434;SDS011;56625;54.322;18.582;2023-03-01T03:40:48;11.00;;;3.70;;
69434;SDS011;56625;54.322;18.582;2023-03-01T03:43:22;11.70;;;4.10;;
69434;SDS011;56625;54.322;18.582;2023-03-01T03:45:50;15.40;;;5.10;;
69434;SDS011;56625;54.322;18.582;2023-03-01T03:48:18;17.60;;;6.90;;
69434;SDS011;56625;54.322;18.582;2023-03-01T03:50:50;21.60;;;7.40;;
69434;SDS011;56625;54.322;18.582;2023-03-01T03:53:23;12.10;;;3.90;;
69434;SDS011;56625;54.322;18.582;2023-03-01T03:55:52;13.40;;;3.10;;
69434;SDS011;56625;54.322;18.582;2023-03-01T03:58:21;16.60;;;4.60;;
69434;SDS011;56625;54.322;18.582;2023-03-01T04:00:53;17.80;;;6.80;;
69434;SDS011;56625;54.322;18.582;2023-03-01T04:03:23;15.00;;;5.20;;
69434;SDS011;56625;54.322;18.582;2023-03-01T04:05:52;15.20;;;5.70;;
69434;SDS011;56625;54.322;18.582;2023-03-01T04:08:21;13.20;;;4.00;;
69434;SDS011;56625;54.322;18.582;2023-03-01T04:10:51;14.30;;;4.90;;
69434;SDS011;56625;54.322;18.582;2023-03-01T04:13:23;13.10;;;4.10;;
69434;SDS011;56625;54.322;18.582;2023-03-01T04:15:53;14.30;;;4.40;;
69434;SDS011;56625;54.322;18.582;2023-03-01T04:18:23;17.00;;;4.70;;
69434;SDS011;56625;54.322;18.582;2023-03-01T04:20:52;14.80;;;3.80;;
69434;SDS011;56625;54.322;18.582;2023-03-01T04:23:21;17.70;;;4.70;;
69434;SDS011;56625;54.322;18.582;2023-03-01T04:25:56;12.40;;;4.20;;
69434;SDS011;56625;54.322;18.582;2023-03-01T04:28:30;10.40;;;3.40;;
69434;SDS011;56625;54.322;18.582;2023-03-01T04:31:13;13.00;;;3.60;;
69434;SDS011;56625;54.322;18.582;2023-03-01T04:36:14;15.50;;;5.10;;
69434;SDS011;56625;54.322;18.582;2023-03-01T04:38:43;17.80;;;5.40;;
69434;SDS011;56625;54.322;18.582;2023-03-01T04:41:15;13.90;;;4.50;;
69434;SDS011;56625;54.322;18.582;2023-03-01T04:43:45;17.00;;;5.10;;
69434;SDS011;56625;54.322;18.582;2023-03-01T04:46:14;11.90;;;3.90;;
69434;SDS011;56625;54.322;18.582;2023-03-01T04:48:44;15.50;;;5.30;;
69434;SDS011;56625;54.322;18.582;2023-03-01T04:51:11;14.10;;;5.10;;
69434;SDS011;56625;54.322;18.582;2023-03-01T04:53:42;13.30;;;3.70;;
69434;SDS011;56625;54.322;18.582;2023-03-01T04:56:10;17.40;;;6.70;;
69434;SDS011;56625;54.322;18.582;2023-03-01T04:58:37;16.10;;;5.30;;
69434;SDS011;56625;54.322;18.582;2023-03-01T05:01:14;12.10;;;4.20;;
69434;SDS011;56625;54.322;18.582;2023-03-01T05:03:44;13.00;;;4.60;;
69434;SDS011;56625;54.322;18.582;2023-03-01T05:06:16;14.20;;;4.30;;
69434;SDS011;56625;54.322;18.582;2023-03-01T05:08:43;13.10;;;4.10;;
69434;SDS011;56625;54.322;18.582;2023-03-01T05:11:11;13.30;;;4.00;;
69434;SDS011;56625;54.322;18.582;2023-03-01T05:13:39;19.40;;;7.60;;
69434;SDS011;56625;54.322;18.582;2023-03-01T05:16:07;16.50;;;5.40;;
69434;SDS011;56625;54.322;18.582;2023-03-01T05:18:37;16.70;;;5.70;;
69434;SDS011;56625;54.322;18.582;2023-03-01T05:21:07;12.80;;;4.00;;
69434;SDS011;56625;54.322;18.582;2023-03-01T05:23:36;15.90;;;5.70;;
69434;SDS011;56625;54.322;18.582;2023-03-01T05:26:04;14.50;;;4.20;;
69434;SDS011;56625;54.322;18.582;2023-03-01T05:28:35;13.40;;;3.70;;
69434;SDS011;56625;54.322;18.582;2023-03-01T05:31:02;9.80;;;3.30;;
69434;SDS011;56625;54.322;18.582;2023-03-01T05:33:28;15.60;;;4.10;;
69434;SDS011;56625;54.322;18.582;2023-03-01T05:35:59;17.40;;;6.20;;
69434;SDS011;56625;54.322;18.582;2023-03-01T05:38:27;15.10;;;4.80;;
69434;SDS011;56625;54.322;18.582;2023-03-01T05:40:53;12.90;;;5.30;;
69434;SDS011;56625;54.322;18.582;2023-03-01T05:43:20;15.20;;;5.30;;
69434;SDS011;56625;54.322;18.582;2023-03-01T05:45:46;19.00;;;6.70;;
69434;SDS011;56625;54.322;18.582;2023-03-01T05:48:13;13.70;;;4.80;;
69434;SDS011;56625;54.322;18.582;2023-03-01T05:50:43;14.00;;;4.40;;
69434;SDS011;56625;54.322;18.582;2023-03-01T05:53:15;12.20;;;3.20;;
69434;SDS011;56625;54.322;18.582;2023-03-01T05:55:43;19.40;;;7.30;;
69434;SDS011;56625;54.322;18.582;2023-03-01T05:58:16;13.00;;;5.00;;
69434;SDS011;56625;54.322;18.582;2023-03-01T06:00:46;11.80;;;4.20;;
69434;SDS011;56625;54.322;18.582;2023-03-01T06:03:15;18.30;;;5.50;;
69434;SDS011;56625;54.322;18.582;2023-03-01T06:05:43;12.80;;;4.30;;
69434;SDS011;56625;54.322;18.582;2023-03-01T06:08:11;15.50;;;5.30;;
69434;SDS011;56625;54.322;18.582;2023-03-01T06:10:38;17.40;;;5.50;;
69434;SDS011;56625;54.322;18.582;2023-03-01T06:13:05;17.60;;;4.60;;
69434;SDS011;56625;54.322;18.582;2023-03-01T06:15:32;20.40;;;6.40;;
69434;SDS011;56625;54.322;18.582;2023-03-01T06:17:58;19.00;;;5.80;;
69434;SDS011;56625;54.322;18.582;2023-03-01T06:20:28;19.60;;;6.50;;
69434;SDS011;56625;54.322;18.582;2023-03-01T06:22:55;18.30;;;6.60;;
69434;SDS011;56625;54.322;18.582;2023-03-01T06:25:25;11.80;;;4.20;;
69434;SDS011;56625;54.322;18.582;2023-03-01T06:27:53;14.40;;;4.70;;
69434;SDS011;56625;54.322;18.582;2023-03-01T06:30:21;14.20;;;3.80;;
69434;SDS011;56625;54.322;18.582;2023-03-01T06:32:49;15.40;;;4.80;;
69434;SDS011;56625;54.322;18.582;2023-03-01T06:35:17;14.20;;;4.00;;
69434;SDS011;56625;54.322;18.582;2023-03-01T06:37:46;12.90;;;3.70;;
69434;SDS011;56625;54.322;18.582;2023-03-01T06:40:15;15.30;;;5.00;;
69434;SDS011;56625;54.322;18.582;2023-03-01T06:42:47;15.60;;;4.40;;
69434;SDS011;56625;54.322;18.582;2023-03-01T06:45:16;14.50;;;4.80;;
69434;SDS011;56625;54.322;18.582;2023-03-01T06:47:44;17.90;;;5.50;;
69434;SDS011;56625;54.322;18.582;2023-03-01T06:50:12;15.50;;;4.80;;
69434;SDS011;56625;54.322;18.582;2023-03-01T06:52:41;15.40;;;4.90;;
69434;SDS011;56625;54.322;18.582;2023-03-01T06:55:07;12.40;;;3.40;;
69434;SDS011;56625;54.322;18.582;2023-03-01T06:57:34;13.70;;;4.10;;
69434;SDS011;56625;54.322;18.582;2023-03-01T07:00:01;13.40;;;3.40;;
69434;SDS011;56625;54.322;18.582;2023-03-01T07:02:29;15.70;;;4.40;;
69434;SDS011;56625;54.322;18.582;2023-03-01T07:04:56;10.60;;;3.00;;
69434;SDS011;56625;54.322;18.582;2023-03-01T07:07:22;12.90;;;4.30;;
69434;SDS011;56625;54.322;18.582;2023-03-01T07:09:49;14.10;;;3.90;;
69434;SDS011;56625;54.322;18.582;2023-03-01T07:12:16;11.10;;;3.20;;
69434;SDS011;56625;54.322;18.582;2023-03-01T07:14:43;13.30;;;4.70;;
69434;SDS011;56625;54.322;18.582;2023-03-01T07:17:10;13.60;;;4.70;;
69434;SDS011;56625;54.322;18.582;2023-03-01T07:19:36;11.00;;;3.20;;
69434;SDS011;56625;54.322;18.582;2023-03-01T07:22:03;12.80;;;3.70;;
69434;SDS011;56625;54.322;18.582;2023-03-01T07:24:30;11.90;;;3.60;;
69434;SDS011;56625;54.322;18.582;2023-03-01T07:26:56;10.50;;;3.70;;
69434;SDS011;56625;54.322;18.582;2023-03-01T07:29:23;14.40;;;4.80;;
69434;SDS011;56625;54.322;18.582;2023-03-01T07:31:50;12.60;;;4.10;;
69434;SDS011;56625;54.322;18.582;2023-03-01T07:34:16;14.10;;;3.60;;
69434;SDS011;56625;54.322;18.582;2023-03-01T07:36:42;11.10;;;3.70;;
69434;SDS011;56625;54.322;18.582;2023-03-01T07:39:11;12.30;;;4.20;;
69434;SDS011;56625;54.322;18.582;2023-03-01T07:41:38;12.90;;;3.80;;
69434;SDS011;56625;54.322;18.582;2023-03-01T07:44:05;16.80;;;5.60;;
69434;SDS011;56625;54.322;18.582;2023-03-01T07:46:31;13.10;;;3.80;;
69434;SDS011;56625;54.322;18.582;2023-03-01T07:48:58;10.60;;;3.20;;
69434;SDS011;56625;54.322;18.582;2023-03-01T07:51:24;13.00;;;4.70;;
69434;SDS011;56625;54.322;18.582;2023-03-01T07:53:51;11.50;;;3.50;;
69434;SDS011;56625;54.322;18.582;2023-03-01T07:56:17;14.20;;;4.60;;
69434;SDS011;56625;54.322;18.582;2023-03-01T07:58:45;13.90;;;4.10;;
69434;SDS011;56625;54.322;18.582;2023-03-01T08:01:15;10.90;;;3.50;;
69434;SDS011;56625;54.322;18.582;2023-03-01T08:03:44;9.20;;;3.10;;
69434;SDS011;56625;54.322;18.582;2023-03-01T08:06:13;14.00;;;4.40;;
69434;SDS011;56625;54.322;18.582;2023-03-01T08:08:42;13.60;;;3.80;;
69434;SDS011;56625;54.322;18.582;2023-03-01T08:11:11;12.90;;;3.90;;
69434;SDS011;56625;54.322;18.582;2023-03-01T08:13:39;13.50;;;4.20;;
69434;SDS011;56625;54.322;18.582;2023-03-01T08:16:10;15.20;;;4.50;;
69434;SDS011;56625;54.322;18.582;2023-03-01T08:18:38;11.70;;;4.10;;
69434;SDS011;56625;54.322;18.582;2023-03-01T08:21:06;13.00;;;3.90;;
69434;SDS011;56625;54.322;18.582;2023-03-01T08:23:35;16.90;;;5.50;;
69434;SDS011;56625;54.322;18.582;2023-03-01T08:26:08;11.90;;;4.00;;
69434;SDS011;56625;54.322;18.582;2023-03-01T08:28:36;12.70;;;3.80;;
69434;SDS011;56625;54.322;18.582;2023-03-01T08:31:16;10.50;;;3.20;;
69434;SDS011;56625;54.322;18.582;2023-03-01T08:33:50;10.20;;;3.30;;
69434;SDS011;56625;54.322;18.582;2023-03-01T08:36:26;10.10;;;3.40;;
69434;SDS011;56625;54.322;18.582;2023-03-01T08:38:59;14.20;;;4.40;;
69434;SDS011;56625;54.322;18.582;2023-03-01T08:41:27;13.50;;;4.50;;
69434;SDS011;56625;54.322;18.582;2023-03-01T08:43:54;12.40;;;4.10;;
69434;SDS011;56625;54.322;18.582;2023-03-01T08:46:29;14.30;;;4.90;;
69434;SDS011;56625;54.322;18.582;2023-03-01T08:48:58;12.70;;;4.80;;
69434;SDS011;56625;54.322;18.582;2023-03-01T08:51:27;12.10;;;4.20;;
69434;SDS011;56625;54.322;18.582;2023-03-01T08:53:55;11.00;;;3.50;;
69434;SDS011;56625;54.322;18.582;2023-03-01T08:56:21;13.20;;;4.70;;
69434;SDS011;56625;54.322;18.582;2023-03-01T08:58:48;12.80;;;4.30;;
69434;SDS011;56625;54.322;18.582;2023-03-01T09:01:18;13.80;;;4.80;;
69434;SDS011;56625;54.322;18.582;2023-03-01T09:03:45;9.60;;;3.80;;
69434;SDS011;56625;54.322;18.582;2023-03-01T09:06:13;10.60;;;3.90;;
69434;SDS011;56625;54.322;18.582;2023-03-01T09:08:42;6.70;;;2.10;;
69434;SDS011;56625;54.322;18.582;2023-03-01T09:11:13;11.40;;;4.20;;
69434;SDS011;56625;54.322;18.582;2023-03-01T09:13:43;10.90;;;3.00;;
69434;SDS011;56625;54.322;18.582;2023-03-01T09:16:12;11.00;;;3.50;;
69434;SDS011;56625;54.322;18.582;2023-03-01T09:18:40;13.30;;;4.20;;
69434;SDS011;56625;54.322;18.582;2023-03-01T09:21:15;11.50;;;4.00;;
69434;SDS011;56625;54.322;18.582;2023-03-01T09:23:46;10.20;;;3.70;;
69434;SDS011;56625;54.322;18.582;2023-03-01T09:26:21;12.20;;;3.70;;
69434;SDS011;56625;54.322;18.582;2023-03-01T09:28:51;14.20;;;5.10;;
69434;SDS011;56625;54.322;18.582;2023-03-01T09:31:21;12.60;;;4.40;;
69434;SDS011;56625;54.322;18.582;2023-03-01T09:33:52;15.20;;;5.10;;
69434;SDS011;56625;54.322;18.582;2023-03-01T09:36:22;16.50;;;5.90;;
69434;SDS011;56625;54.322;18.582;2023-03-01T09:38:51;14.00;;;4.90;;
69434;SDS011;56625;54.322;18.582;2023-03-01T09:47:27;14.00;;;5.00;;
69434;SDS011;56625;54.322;18.582;2023-03-01T09:50:09;15.40;;;5.30;;
69434;SDS011;56625;54.322;18.582;2023-03-01T09:52:42;15.40;;;5.40;;
69434;SDS011;56625;54.322;18.582;2023-03-01T09:55:26;14.30;;;5.50;;
69434;SDS011;56625;54.322;18.582;2023-03-01T09:58:06;14.20;;;5.30;;
69434;SDS011;56625;54.322;18.582;2023-03-01T10:00:49;10.40;;;3.10;;
69434;SDS011;56625;54.322;18.582;2023-03-01T10:03:26;15.70;;;5.80;;
69434;SDS011;56625;54.322;18.582;2023-03-01T10:06:14;17.00;;;6.10;;
69434;SDS011;56625;54.322;18.582;2023-03-01T10:09:05;13.40;;;5.70;;
69434;SDS011;56625;54.322;18.582;2023-03-01T10:11:45;14.10;;;5.00;;
69434;SDS011;56625;54.322;18.582;2023-03-01T10:17:12;11.10;;;3.80;;
69434;SDS011;56625;54.322;18.582;2023-03-01T10:19:50;13.50;;;5.10;;
69434;SDS011;56625;54.322;18.582;2023-03-01T10:22:25;14.20;;;4.90;;
69434;SDS011;56625;54.322;18.582;2023-03-01T10:24:57;13.80;;;5.40;;
69434;SDS011;56625;54.322;18.582;2023-03-01T10:28:05;13.10;;;5.30;;
69434;SDS011;56625;54.322;18.582;2023-03-01T10:30:39;13.50;;;5.20;;
69434;SDS011;56625;54.322;18.582;2023-03-01T10:33:15;12.70;;;5.10;;
69434;SDS011;56625;54.322;18.582;2023-03-01T10:35:46;12.20;;;4.40;;
69434;SDS011;56625;54.322;18.582;2023-03-01T10:38:15;12.50;;;5.30;;
69434;SDS011;56625;54.322;18.582;2023-03-01T10:40:59;13.20;;;4.90;;
69434;SDS011;56625;54.322;18.582;2023-03-01T10:43:55;15.10;;;5.50;;
69434;SDS011;56625;54.322;18.582;2023-03-01T10:46:34;15.00;;;5.10;;
69434;SDS011;56625;54.322;18.582;2023-03-01T10:49:16;11.90;;;4.80;;
69434;SDS011;56625;54.322;18.582;2023-03-01T10:51:51;15.50;;;6.20;;
69434;SDS011;56625;54.322;18.582;2023-03-01T10:54:22;16.10;;;5.90;;
69434;SDS011;56625;54.322;18.582;2023-03-01T10:57:00;15.30;;;5.60;;
69434;SDS011;56625;54.322;18.582;2023-03-01T11:05:15;17.30;;;6.10;;
69434;SDS011;56625;54.322;18.582;2023-03-01T11:07:56;15.10;;;5.60;;
69434;SDS011;56625;54.322;18.582;2023-03-01T11:10:30;12.10;;;4.70;;
69434;SDS011;56625;54.322;18.582;2023-03-01T11:13:15;14.30;;;5.30;;
69434;SDS011;56625;54.322;18.582;2023-03-01T11:16:02;12.50;;;4.90;;
69434;SDS011;56625;54.322;18.582;2023-03-01T11:18:36;13.50;;;5.10;;
69434;SDS011;56625;54.322;18.582;2023-03-01T11:21:15;14.90;;;5.60;;
69434;SDS011;56625;54.322;18.582;2023-03-01T11:23:43;16.00;;;5.60;;
69434;SDS011;56625;54.322;18.582;2023-03-01T11:26:13;12.30;;;4.40;;
69434;SDS011;56625;54.322;18.582;2023-03-01T11:28:44;15.20;;;5.80;;
69434;SDS011;56625;54.322;18.582;2023-03-01T11:31:17;14.30;;;5.60;;
69434;SDS011;56625;54.322;18.582;2023-03-01T11:34:13;16.70;;;5.90;;
69434;SDS011;56625;54.322;18.582;2023-03-01T11:36:49;13.30;;;5.50;;
69434;SDS011;56625;54.322;18.582;2023-03-01T11:39:32;12.90;;;5.40;;
69434;SDS011;56625;54.322;18.582;2023-03-01T11:42:13;13.10;;;5.70;;
69434;SDS011;56625;54.322;18.582;2023-03-01T11:44:48;10.40;;;3.70;;
69434;SDS011;56625;54.322;18.582;2023-03-01T11:50:46;13.00;;;5.30;;
69434;SDS011;56625;54.322;18.582;2023-03-01T11:56:21;16.00;;;6.30;;
69434;SDS011;56625;54.322;18.582;2023-03-01T12:07:46;16.60;;;7.20;;
69434;SDS011;56625;54.322;18.582;2023-03-01T12:10:29;16.00;;;6.70;;
69434;SDS011;56625;54.322;18.582;2023-03-01T12:15:43;15.40;;;5.40;;
69434;SDS011;56625;54.322;18.582;2023-03-01T12:18:52;18.60;;;7.40;;
69434;SDS011;56625;54.322;18.582;2023-03-01T12:39:29;15.50;;;6.50;;
69434;SDS011;56625;54.322;18.582;2023-03-01T12:45:16;18.60;;;7.20;;
69434;SDS011;56625;54.322;18.582;2023-03-01T12:51:10;17.40;;;5.60;;
69434;SDS011;56625;54.322;18.582;2023-03-01T12:53:47;12.70;;;4.50;;
69434;SDS011;56625;54.322;18.582;2023-03-01T12:56:22;16.60;;;6.60;;
69434;SDS011;56625;54.322;18.582;2023-03-01T12:59:18;11.90;;;4.40;;
69434;SDS011;56625;54.322;18.582;2023-03-01T13:02:03;17.80;;;6.10;;
69434;SDS011;56625;54.322;18.582;2023-03-01T13:07:53;20.60;;;7.50;;
69434;SDS011;56625;54.322;18.582;2023-03-01T13:10:41;22.50;;;8.50;;
69434;SDS011;56625;54.322;18.582;2023-03-01T13:13:22;19.10;;;7.60;;
69434;SDS011;56625;54.322;18.582;2023-03-01T13:15:51;14.40;;;6.30;;
69434;SDS011;56625;54.322;18.582;2023-03-01T13:20:48;19.30;;;7.70;;
69434;SDS011;56625;54.322;18.582;2023-03-01T13:26:17;18.00;;;6.70;;
69434;SDS011;56625;54.322;18.582;2023-03-01T13:33:58;13.70;;;5.70;;
69434;SDS011;56625;54.322;18.582;2023-03-01T13:38:58;19.10;;;7.10;;
69434;SDS011;56625;54.322;18.582;2023-03-01T13:44:37;9.90;;;3.80;;
69434;SDS011;56625;54.322;18.582;2023-03-01T13:47:15;16.70;;;6.40;;
69434;SDS011;56625;54.322;18.582;2023-03-01T13:52:40;15.00;;;5.40;;
69434;SDS011;56625;54.322;18.582;2023-03-01T13:55:23;12.70;;;5.10;;
69434;SDS011;56625;54.322;18.582;2023-03-01T13:57:57;17.00;;;6.70;;
69434;SDS011;56625;54.322;18.582;2023-03-01T14:03:24;17.70;;;7.00;;
69434;SDS011;56625;54.322;18.582;2023-03-01T14:08:43;36.90;;;8.40;;
69434;SDS011;56625;54.322;18.582;2023-03-01T14:17:22;16.00;;;4.90;;
69434;SDS011;56625;54.322;18.582;2023-03-01T14:20:18;16.30;;;4.70;;
69434;SDS011;56625;54.322;18.582;2023-03-01T14:22:51;13.00;;;5.60;;
69434;SDS011;56625;54.322;18.582;2023-03-01T14:25:31;17.20;;;6.50;;
69434;SDS011;56625;54.322;18.582;2023-03-01T14:28:13;13.40;;;4.40;;
69434;SDS011;56625;54.322;18.582;2023-03-01T14:30:47;14.30;;;5.30;;
69434;SDS011;56625;54.322;18.582;2023-03-01T14:33:33;14.60;;;5.00;;
69434;SDS011;56625;54.322;18.582;2023-03-01T14:38:46;15.30;;;6.40;;
69434;SDS011;56625;54.322;18.582;2023-03-01T14:41:22;17.60;;;6.50;;
69434;SDS011;56625;54.322;18.582;2023-03-01T14:43:59;15.20;;;6.20;;
69434;SDS011;56625;54.322;18.582;2023-03-01T14:46:39;13.20;;;5.30;;
69434;SDS011;56625;54.322;18.582;2023-03-01T14:49:22;14.10;;;5.40;;
69434;SDS011;56625;54.322;18.582;2023-03-01T14:51:58;13.70;;;4.70;;
69434;SDS011;56625;54.322;18.582;2023-03-01T14:54:41;15.90;;;5.80;;
69434;SDS011;56625;54.322;18.582;2023-03-01T14:57:16;18.00;;;5.90;;
69434;SDS011;56625;54.322;18.582;2023-03-01T14:59:49;12.60;;;4.10;;
69434;SDS011;56625;54.322;18.582;2023-03-01T15:02:22;12.90;;;5.80;;
69434;SDS011;56625;54.322;18.582;2023-03-01T15:05:01;16.70;;;6.20;;
69434;SDS011;56625;54.322;18.582;2023-03-01T15:07:38;14.30;;;5.30;;
69434;SDS011;56625;54.322;18.582;2023-03-01T15:10:17;12.80;;;4.80;;
69434;SDS011;56625;54.322;18.582;2023-03-01T15:12:47;13.50;;;4.80;;
69434;SDS011;56625;54.322;18.582;2023-03-01T15:15:33;13.80;;;5.10;;
69434;SDS011;56625;54.322;18.582;2023-03-01T15:18:15;17.40;;;6.20;;
69434;SDS011;56625;54.322;18.582;2023-03-01T15:20:42;11.80;;;4.00;;
69434;SDS011;56625;54.322;18.582;2023-03-01T15:25:51;17.50;;;5.80;;
69434;SDS011;56625;54.322;18.582;2023-03-01T15:28:34;10.80;;;4.60;;
69434;SDS011;56625;54.322;18.582;2023-03-01T15:31:26;14.80;;;5.20;;
69434;SDS011;56625;54.322;18.582;2023-03-01T15:34:29;13.80;;;5.60;;
69434;SDS011;56625;54.322;18.582;2023-03-01T15:37:45;15.10;;;5.30;;
69434;SDS011;56625;54.322;18.582;2023-03-01T15:40:29;16.50;;;6.40;;
69434;SDS011;56625;54.322;18.582;2023-03-01T15:43:03;17.10;;;5.60;;
69434;SDS011;56625;54.322;18.582;2023-03-01T15:45:33;13.80;;;5.50;;
69434;SDS011;56625;54.322;18.582;2023-03-01T15:48:14;15.40;;;5.80;;
69434;SDS011;56625;54.322;18.582;2023-03-01T15:50:54;18.00;;;5.90;;
69434;SDS011;56625;54.322;18.582;2023-03-01T15:53:23;19.10;;;6.70;;
69434;SDS011;56625;54.322;18.582;2023-03-01T15:55:50;15.60;;;6.50;;
69434;SDS011;56625;54.322;18.582;2023-03-01T15:58:24;17.20;;;6.80;;
69434;SDS011;56625;54.322;18.582;2023-03-01T16:00:52;18.10;;;6.40;;
69434;SDS011;56625;54.322;18.582;2023-03-01T16:03:28;14.80;;;5.00;;
69434;SDS011;56625;54.322;18.582;2023-03-01T16:05:55;18.10;;;6.80;;
69434;SDS011;56625;54.322;18.582;2023-03-01T16:08:22;18.50;;;6.30;;
69434;SDS011;56625;54.322;18.582;2023-03-01T16:10:49;18.60;;;6.40;;
69434;SDS011;56625;54.322;18.582;2023-03-01T16:13:17;16.80;;;6.30;;
69434;SDS011;56625;54.322;18.582;2023-03-01T16:15:44;17.50;;;6.10;;
69434;SDS011;56625;54.322;18.582;2023-03-01T16:18:11;17.30;;;6.70;;
69434;SDS011;56625;54.322;18.582;2023-03-01T16:20:38;15.30;;;6.20;;
69434;SDS011;56625;54.322;18.582;2023-03-01T16:23:07;17.10;;;6.40;;
69434;SDS011;56625;54.322;18.582;2023-03-01T16:25:37;20.60;;;7.30;;
69434;SDS011;56625;54.322;18.582;2023-03-01T16:28:04;22.50;;;8.30;;
69434;SDS011;56625;54.322;18.582;2023-03-01T16:30:35;22.30;;;8.70;;
69434;SDS011;56625;54.322;18.582;2023-03-01T16:33:04;22.30;;;9.70;;
69434;SDS011;56625;54.322;18.582;2023-03-01T16:35:53;23.70;;;9.10;;
69434;SDS011;56625;54.322;18.582;2023-03-01T16:38:20;27.10;;;9.90;;
69434;SDS011;56625;54.322;18.582;2023-03-01T16:40:48;25.80;;;9.80;;
69434;SDS011;56625;54.322;18.582;2023-03-01T16:43:17;27.30;;;10.50;;